Terminal Aerodrome Forecast
Issued by NWS

Home | Current Version | Previous Version | Text Only | Print | Product List | Glossary On
Versions: 1 2 3 4 5 6 7 8 9 10 11 12 13 14 15 16 17 18 19 20 21 22 23 24 25 26 27
000
FTUS43 KIND 021700
TAFHUF
TAF
KHUF 021722Z 0218/0318 26006KT P6SM BKN025
     FM022000 28009KT P6SM SCT035 BKN150
     FM030000 30002KT P6SM SCT035
     FM030600 00000KT 2SM BR SCT006
     FM030900 00000KT 1SM BR VV003
     FM031400 18005KT P6SM FEW030=

USA.gov is the U.S. government's official web portal to all federal, state and local government web resources and services.